Time;durP1;ratioP1;P1;durP2;ratioP2;P2;SDS_P1;SDS_P2;PMS_P1;PMS_P2;Temp;Humidity;BMP_temperature;BMP_pressure;BME280_temperature;BME280_humidity;BME280_pressure;Samples;Min_cycle;Max_cycle;Signal;HPM_P1;HPM_P2
2020/12/06 00:00:38;;;;;;;;;;;;;;;10.70;60.89;97508.70;1760174;79;26029;-86
2020/12/06 00:03:25;;;;;;;;;;;;;;;10.65;60.92;97499.11;1769641;79;22128;-85
2020/12/06 00:06:12;;;;;;;;;;;;;;;10.56;60.91;97506.44;1765911;79;27131;-85
2020/12/06 00:08:59;;;;;;;;;;;;;;;10.54;60.88;97514.88;1755655;79;24355;-85
2020/12/06 00:11:46;;;;;;;;;;;;;;;10.44;60.90;97519.59;1769633;79;20310;-86
2020/12/06 00:14:33;;;;;;;;;;;;;;;10.42;60.89;97516.73;1768602;79;25138;-85
2020/12/06 00:17:20;;;;;;;;;;;;;;;10.32;60.89;97519.77;1762372;79;22213;-86
2020/12/06 00:20:07;;;;;;;;;;;;;;;10.34;60.88;97522.63;1762197;79;26193;-85
2020/12/06 00:22:54;;;;;;;;;;;;;;;10.27;60.88;97524.08;1757728;80;24398;-85
2020/12/06 00:25:42;;;;;;;;;;;;;;;10.33;60.88;97515.73;1761633;81;20543;-85
2020/12/06 00:28:28;;;;;;;;;;;;;;;10.42;60.90;97515.42;1782997;79;25130;-85
2020/12/06 00:31:15;;;;;;;;;;;;;;;10.40;60.92;97522.12;1804242;77;22866;-85
2020/12/06 00:34:04;;;;;;;;;;;;;;;10.41;60.92;97519.86;1785517;79;25994;-85
2020/12/06 00:36:52;;;;;;;;;;;;;;;10.43;60.92;97528.86;1784864;79;26356;-85
2020/12/06 00:39:39;;;;;;;;;;;;;;;10.38;60.94;97527.11;1806112;79;20314;-85
2020/12/06 00:42:25;;;;;;;;;;;;;;;10.37;60.94;97527.59;1811214;79;25134;-85
2020/12/06 00:45:11;;;;;;;;;;;;;;;10.34;60.91;97526.55;1783844;79;22155;-85
2020/12/06 00:47:58;;;;;;;;;;;;;;;10.36;60.92;97519.89;1807734;79;26125;-85
2020/12/06 00:50:46;;;;;;;;;;;;;;;10.36;60.96;97529.05;1756718;79;39275;-85
2020/12/06 00:53:32;;;;;;;;;;;;;;;10.39;60.97;97530.08;1800358;79;20294;-85
2020/12/06 00:56:19;;;;;;;;;;;;;;;10.38;60.99;97534.95;1800676;79;26025;-85
2020/12/06 00:59:06;;;;;;;;;;;;;;;10.41;61.00;97537.33;1803539;79;22235;-85
2020/12/06 01:01:52;;;;;;;;;;;;;;;10.46;61.01;97526.01;1805465;79;26925;-86
2020/12/06 01:04:38;;;;;;;;;;;;;;;10.56;61.04;97527.36;1805270;79;25407;-85
2020/12/06 01:07:25;;;;;;;;;;;;;;;10.62;61.10;97525.55;1806106;79;20522;-86
2020/12/06 01:10:12;;;;;;;;;;;;;;;10.67;61.11;97520.75;1802530;79;25087;-85
2020/12/06 01:12:58;;;;;;;;;;;;;;;10.70;61.15;97525.70;1801459;78;22125;-86
2020/12/06 01:15:45;;;;;;;;;;;;;;;10.63;61.10;97519.36;1801516;79;26166;-86
2020/12/06 01:18:31;;;;;;;;;;;;;;;10.64;61.10;97513.14;1799187;79;24610;-87
2020/12/06 01:21:05;;;;;;;;;;;;;;;10.56;61.07;97516.90;1809982;79;20456;-86
2020/12/06 01:23:52;;;;;;;;;;;;;;;10.56;61.06;97518.20;1804075;78;25149;-85
2020/12/06 01:26:38;;;;;;;;;;;;;;;10.62;61.06;97519.00;1803491;79;22162;-86
2020/12/06 01:29:24;;;;;;;;;;;;;;;10.67;61.08;97515.04;1798466;79;26340;-84
2020/12/06 01:32:11;;;;;;;;;;;;;;;10.67;61.08;97518.96;1798374;79;24890;-85
2020/12/06 01:34:57;;;;;;;;;;;;;;;10.74;61.09;97516.66;1797399;79;20265;-86
2020/12/06 01:37:44;;;;;;;;;;;;;;;10.72;61.07;97515.95;1750994;79;25120;-85
2020/12/06 01:40:30;;;;;;;;;;;;;;;10.67;61.07;97509.80;1797001;79;22977;-85
2020/12/06 01:43:17;;;;;;;;;;;;;;;10.63;61.05;97512.81;1791334;79;26091;-85
2020/12/06 01:46:03;;;;;;;;;;;;;;;10.62;61.03;97515.08;1790445;79;24660;-85
2020/12/06 01:48:50;;;;;;;;;;;;;;;10.63;61.03;97512.81;1779379;78;20286;-85
2020/12/06 01:51:36;;;;;;;;;;;;;;;10.46;60.99;97515.06;1806256;78;25175;-85
2020/12/06 01:54:23;;;;;;;;;;;;;;;10.43;60.97;97502.70;1804671;78;23983;-85
2020/12/06 01:57:10;;;;;;;;;;;;;;;10.44;60.98;97507.81;1800987;78;27170;-85
2020/12/06 01:59:43;;;;;;;;;;;;;;;10.42;60.97;97506.27;1801297;78;25604;-86
2020/12/06 02:02:30;;;;;;;;;;;;;;;10.31;60.99;97506.38;1795180;78;20265;-86
2020/12/06 02:05:16;;;;;;;;;;;;;;;10.26;60.96;97496.27;1793868;78;25138;-86
2020/12/06 02:08:03;;;;;;;;;;;;;;;10.32;60.97;97497.55;1776901;78;21952;-86
2020/12/06 02:10:49;;;;;;;;;;;;;;;10.41;61.01;97505.47;1797329;78;26197;-86
2020/12/06 02:13:37;;;;;;;;;;;;;;;10.33;61.04;97500.04;1800844;78;25572;-85
2020/12/06 02:16:23;;;;;;;;;;;;;;;10.24;61.05;97499.52;1787906;78;20575;-86
2020/12/06 02:19:14;;;;;;;;;;;;;;;10.18;61.03;97487.42;1811717;78;26097;-85
2020/12/06 02:22:00;;;;;;;;;;;;;;;10.18;61.05;97493.95;1774646;78;21899;-85
2020/12/06 02:24:47;;;;;;;;;;;;;;;10.19;61.11;97505.61;1803988;78;26067;-86
2020/12/06 02:27:34;;;;;;;;;;;;;;;10.30;61.14;97506.02;1809859;78;25399;-85
2020/12/06 02:30:22;;;;;;;;;;;;;;;10.33;61.19;97500.52;1768654;80;20375;-85
2020/12/06 02:33:08;;;;;;;;;;;;;;;10.27;61.21;97500.55;1754642;81;25370;-86
2020/12/06 02:35:55;;;;;;;;;;;;;;;10.18;61.23;97497.41;1737783;81;21952;-85
2020/12/06 02:38:42;;;;;;;;;;;;;;;10.12;61.23;97498.35;1757856;81;26173;-86
2020/12/06 02:41:29;;;;;;;;;;;;;;;10.17;61.25;97504.05;1758476;80;24838;-86
2020/12/06 02:44:16;;;;;;;;;;;;;;;10.14;61.27;97499.89;1741248;81;20313;-86
2020/12/06 02:47:03;;;;;;;;;;;;;;;10.17;61.29;97497.52;1718563;83;25199;-85
2020/12/06 02:49:49;;;;;;;;;;;;;;;10.19;61.31;97510.00;1719665;82;22138;-85
2020/12/06 02:52:35;;;;;;;;;;;;;;;10.22;61.37;97506.64;1729718;82;26121;-85
2020/12/06 02:55:24;;;;;;;;;;;;;;;10.23;61.38;97500.46;1742056;80;25550;-85
2020/12/06 02:58:10;;;;;;;;;;;;;;;10.20;61.41;97500.70;1733149;82;20258;-85
2020/12/06 03:00:57;;;;;;;;;;;;;;;10.23;61.41;97501.77;1730236;82;25115;-85
2020/12/06 03:03:43;;;;;;;;;;;;;;;10.24;61.44;97499.98;1729472;82;22136;-84
2020/12/06 03:06:29;;;;;;;;;;;;;;;10.29;61.44;97494.72;1736486;81;27020;-86
2020/12/06 03:09:16;;;;;;;;;;;;;;;10.25;61.48;97501.65;1721553;82;24627;-86
2020/12/06 03:12:02;;;;;;;;;;;;;;;10.24;61.50;97498.68;1736574;82;20364;-86
2020/12/06 03:14:49;;;;;;;;;;;;;;;10.21;61.52;97494.99;1736214;81;25131;-86
2020/12/06 03:17:35;;;;;;;;;;;;;;;10.21;61.53;97493.69;1739305;81;22203;-86
2020/12/06 03:20:21;;;;;;;;;;;;;;;10.20;61.55;97494.16;1728237;83;26187;-86
2020/12/06 03:23:08;;;;;;;;;;;;;;;10.20;61.57;97499.39;1728777;83;24878;-86
2020/12/06 03:25:54;;;;;;;;;;;;;;;10.27;61.61;97497.10;1706406;82;20263;-86
2020/12/06 03:28:40;;;;;;;;;;;;;;;10.24;61.63;97495.59;1743481;81;24848;-86
2020/12/06 03:31:27;;;;;;;;;;;;;;;10.26;61.65;97505.42;1718747;83;22239;-85
2020/12/06 03:34:17;;;;;;;;;;;;;;;10.21;61.64;97501.53;1800660;78;27646;-86
2020/12/06 03:37:04;;;;;;;;;;;;;;;10.11;61.65;97504.53;1804207;78;24529;-85
2020/12/06 03:39:52;;;;;;;;;;;;;;;10.11;61.66;97511.90;1785074;80;20510;-86
2020/12/06 03:42:39;;;;;;;;;;;;;;;10.14;61.66;97505.60;1784932;80;25089;-85
2020/12/06 03:45:26;;;;;;;;;;;;;;;10.09;61.70;97505.48;1786431;80;22113;-86
2020/12/06 03:48:12;;;;;;;;;;;;;;;10.10;61.72;97505.00;1785878;80;26911;-86
2020/12/06 03:50:59;;;;;;;;;;;;;;;10.04;61.75;97503.73;1807741;78;25318;-86
2020/12/06 03:53:45;;;;;;;;;;;;;;;10.01;61.79;97508.39;1785513;80;20308;-86
2020/12/06 03:56:31;;;;;;;;;;;;;;;10.00;61.81;97505.41;1784458;80;25096;-86
2020/12/06 03:59:18;;;;;;;;;;;;;;;9.99;61.81;97508.50;1759586;80;21914;-86
2020/12/06 04:02:05;;;;;;;;;;;;;;;9.97;61.83;97513.52;1787507;80;26248;-86
2020/12/06 04:04:52;;;;;;;;;;;;;;;9.96;61.87;97509.25;1799904;78;24631;-86
2020/12/06 04:07:38;;;;;;;;;;;;;;;9.98;61.92;97504.73;1765481;78;20258;-86
2020/12/06 04:10:24;;;;;;;;;;;;;;;10.02;61.96;97508.75;1804336;78;25106;-85
2020/12/06 04:13:13;;;;;;;;;;;;;;;9.99;62.01;97495.91;1799281;78;22326;-85
2020/12/06 04:16:00;;;;;;;;;;;;;;;9.95;62.02;97502.36;1802441;78;26185;-85
2020/12/06 04:18:47;;;;;;;;;;;;;;;9.96;62.05;97507.46;1798178;78;24629;-86
2020/12/06 04:21:34;;;;;;;;;;;;;;;9.90;62.09;97510.58;1742258;78;20477;-86
2020/12/06 04:24:20;;;;;;;;;;;;;;;9.82;62.09;97502.52;1800325;78;26016;-86
2020/12/06 04:27:07;;;;;;;;;;;;;;;9.76;62.11;97503.52;1819000;77;21945;-85
2020/12/06 04:29:53;;;;;;;;;;;;;;;9.68;62.16;97501.99;1800370;78;26148;-85
2020/12/06 04:32:39;;;;;;;;;;;;;;;9.72;62.19;97498.16;1797702;78;24642;-84
2020/12/06 04:35:27;;;;;;;;;;;;;;;9.71;62.22;97484.78;1771654;78;20377;-85
2020/12/06 04:38:13;;;;;;;;;;;;;;;9.77;62.27;97479.02;1799692;78;25134;-85
2020/12/06 04:41:00;;;;;;;;;;;;;;;9.80;62.30;97477.02;1772414;78;22141;-86
2020/12/06 04:43:47;;;;;;;;;;;;;;;9.87;62.36;97470.81;1803421;78;26190;-85
2020/12/06 04:46:33;;;;;;;;;;;;;;;9.92;62.40;97474.70;1802552;78;24624;-85
2020/12/06 04:49:19;;;;;;;;;;;;;;;10.02;62.46;97481.30;1798482;78;20458;-85
2020/12/06 04:52:05;;;;;;;;;;;;;;;10.11;62.50;97481.83;1809920;78;25339;-85
2020/12/06 04:54:52;;;;;;;;;;;;;;;10.14;62.55;97480.29;1804876;78;22143;-85
2020/12/06 04:57:39;;;;;;;;;;;;;;;10.21;62.57;97481.92;1821053;77;25982;-86
2020/12/06 05:00:26;;;;;;;;;;;;;;;10.28;62.58;97478.67;1799204;78;25578;-85
2020/12/06 05:03:13;;;;;;;;;;;;;;;10.28;62.59;97485.22;1820973;77;20291;-86
2020/12/06 05:05:59;;;;;;;;;;;;;;;10.28;62.59;97484.38;1797430;78;24321;-85
2020/12/06 05:08:45;;;;;;;;;;;;;;;10.22;62.56;97485.72;1799532;78;22313;-85
2020/12/06 05:11:33;;;;;;;;;;;;;;;10.11;62.51;97483.14;1796831;78;26312;-86
2020/12/06 05:14:19;;;;;;;;;;;;;;;10.14;62.49;97489.91;1765869;78;24513;-85
2020/12/06 05:17:06;;;;;;;;;;;;;;;10.14;62.47;97489.44;1786658;80;20298;-85
2020/12/06 05:19:53;;;;;;;;;;;;;;;10.13;62.49;97486.47;1786204;80;25092;-86
2020/12/06 05:22:39;;;;;;;;;;;;;;;10.13;62.48;97486.94;1786347;80;22401;-85
2020/12/06 05:25:27;;;;;;;;;;;;;;;10.04;62.47;97486.73;1786892;80;26134;-85
2020/12/06 05:28:13;;;;;;;;;;;;;;;9.94;62.47;97487.63;1784033;80;24608;-85
2020/12/06 05:31:00;;;;;;;;;;;;;;;9.89;62.42;97495.84;1781604;80;20480;-85
2020/12/06 05:33:47;;;;;;;;;;;;;;;9.93;62.43;97492.48;1768639;79;25301;-85
2020/12/06 05:36:33;;;;;;;;;;;;;;;9.93;62.48;97494.63;1778866;79;22446;-85
2020/12/06 05:39:19;;;;;;;;;;;;;;;9.93;62.50;97493.80;1713650;81;25861;-85
2020/12/06 05:42:05;;;;;;;;;;;;;;;9.96;62.49;97494.88;1765328;81;24864;-85
2020/12/06 05:44:52;;;;;;;;;;;;;;;9.93;62.50;97492.48;1805148;78;20270;-85
2020/12/06 05:47:39;;;;;;;;;;;;;;;10.03;62.51;97505.18;1804312;78;25067;-85
2020/12/06 05:50:25;;;;;;;;;;;;;;;10.05;62.53;97510.62;1801009;78;22009;-86
2020/12/06 05:53:12;;;;;;;;;;;;;;;10.03;62.53;97509.11;1801865;78;26071;-86
2020/12/06 05:55:59;;;;;;;;;;;;;;;9.99;62.53;97512.91;1803157;78;24624;-86
2020/12/06 05:58:46;;;;;;;;;;;;;;;9.91;62.53;97517.94;1807263;78;20258;-85
2020/12/06 06:01:34;;;;;;;;;;;;;;;9.81;62.47;97513.95;1801931;78;25136;-86
2020/12/06 06:04:21;;;;;;;;;;;;;;;9.68;62.44;97506.74;1828419;77;22351;-86
2020/12/06 06:07:08;;;;;;;;;;;;;;;9.48;62.41;97508.83;1802470;78;26129;-85
2020/12/06 06:09:56;;;;;;;;;;;;;;;9.31;62.35;97508.87;1771411;78;25362;-86
2020/12/06 06:12:42;;;;;;;;;;;;;;;9.09;62.32;97511.04;1804152;78;20616;-86
2020/12/06 06:15:29;;;;;;;;;;;;;;;9.04;62.32;97514.48;1803938;78;25092;-85
2020/12/06 06:18:15;;;;;;;;;;;;;;;9.02;62.36;97515.07;1827980;77;21697;-85
2020/12/06 06:21:02;;;;;;;;;;;;;;;9.12;62.40;97514.70;1799482;78;26280;-85
2020/12/06 06:23:49;;;;;;;;;;;;;;;9.08;62.47;97517.67;1774880;78;24490;-85
2020/12/06 06:26:37;;;;;;;;;;;;;;;8.89;62.50;97517.47;1807004;78;20312;-85
2020/12/06 06:29:23;;;;;;;;;;;;;;;8.58;62.50;97535.92;1830853;77;24901;-85
2020/12/06 06:32:11;;;;;;;;;;;;;;;8.25;62.50;97528.37;1803321;78;22933;-86
2020/12/06 06:34:58;;;;;;;;;;;;;;;8.05;62.52;97521.22;1808577;78;26975;-85
2020/12/06 06:37:44;;;;;;;;;;;;;;;7.93;62.56;97533.37;1800059;78;24896;-87
2020/12/06 06:40:31;;;;;;;;;;;;;;;7.92;62.65;97540.81;1812984;78;20440;-86
2020/12/06 06:43:18;;;;;;;;;;;;;;;8.11;62.76;97531.66;1790549;78;24935;-86
2020/12/06 06:46:06;;;;;;;;;;;;;;;8.09;62.87;97534.83;1786324;78;21723;-86
2020/12/06 06:49:01;;;;;;;;;;;;;;;8.11;62.99;97531.19;1781898;78;25620;-86
2020/12/06 06:51:48;;;;;;;;;;;;;;;8.23;63.09;97538.56;1806599;78;24979;-85
2020/12/06 06:54:35;;;;;;;;;;;;;;;8.29;63.20;97535.00;1807083;78;20261;-85
2020/12/06 06:57:21;;;;;;;;;;;;;;;8.28;63.29;97530.77;1784213;78;24894;-85
2020/12/06 07:00:08;;;;;;;;;;;;;;;8.37;63.36;97527.48;1813425;78;22094;-85
2020/12/06 07:02:55;;;;;;;;;;;;;;;8.49;63.45;97536.16;1806138;78;26122;-86
2020/12/06 07:05:42;;;;;;;;;;;;;;;8.52;63.50;97535.08;1786145;78;24118;-86
2020/12/06 07:08:29;;;;;;;;;;;;;;;8.57;63.55;97532.95;1778685;78;20261;-85
2020/12/06 07:11:16;;;;;;;;;;;;;;;8.63;63.61;97535.10;1808406;78;25043;-85
2020/12/06 07:14:03;;;;;;;;;;;;;;;8.73;63.67;97530.36;1808883;78;22214;-85
2020/12/06 07:16:51;;;;;;;;;;;;;;;8.69;63.71;97516.37;1807344;78;27224;-85
2020/12/06 07:19:37;;;;;;;;;;;;;;;8.53;63.74;97518.50;1807987;78;25518;-86
2020/12/06 07:22:25;;;;;;;;;;;;;;;8.45;63.75;97513.89;1812112;78;20424;-86
2020/12/06 07:25:12;;;;;;;;;;;;;;;8.47;63.80;97517.19;1814433;77;26707;-86
2020/12/06 07:27:59;;;;;;;;;;;;;;;8.44;63.83;97523.12;1811201;78;22102;-86
2020/12/06 07:30:46;;;;;;;;;;;;;;;8.47;63.87;97516.35;1804339;78;26179;-87
2020/12/06 07:33:32;;;;;;;;;;;;;;;8.49;63.91;97514.47;1783752;78;24342;-86
2020/12/06 07:36:18;;;;;;;;;;;;;;;8.54;63.95;97512.34;1806660;78;20263;-86
2020/12/06 07:39:08;;;;;;;;;;;;;;;8.61;64.01;97516.16;1788412;78;25171;-85
2020/12/06 07:41:55;;;;;;;;;;;;;;;8.72;64.05;97525.28;1798894;79;22153;-86
2020/12/06 07:44:42;;;;;;;;;;;;;;;8.78;64.12;97524.31;1790012;78;26202;-85
2020/12/06 07:47:28;;;;;;;;;;;;;;;8.89;64.17;97524.79;1739325;80;25209;-86
2020/12/06 07:50:15;;;;;;;;;;;;;;;8.92;64.21;97534.17;1754633;78;20505;-86
2020/12/06 07:53:02;;;;;;;;;;;;;;;8.86;64.20;97536.78;1805856;78;26056;-85
2020/12/06 07:55:48;;;;;;;;;;;;;;;8.90;64.24;97532.14;1795027;78;22226;-85
2020/12/06 07:58:34;;;;;;;;;;;;;;;8.98;64.27;97536.31;1726952;82;26240;-85
2020/12/06 08:01:25;;;;;;;;;;;;;;;8.99;64.30;97541.89;1728681;82;24882;-86
2020/12/06 08:04:15;;;;;;;;;;;;;;;8.86;64.31;97535.95;1726973;82;20437;-85
2020/12/06 08:07:01;;;;;;;;;;;;;;;8.90;64.32;97544.72;1773135;79;25001;-86
2020/12/06 08:09:48;;;;;;;;;;;;;;;8.91;64.34;97551.61;1833417;78;22130;-87
2020/12/06 08:12:35;;;;;;;;;;;;;;;8.94;64.37;97544.86;1841868;77;26328;-87
2020/12/06 08:15:21;;;;;;;;;;;;;;;8.95;64.42;97549.58;1838973;77;24848;-87
2020/12/06 08:18:09;;;;;;;;;;;;;;;8.99;64.48;97542.72;1778147;79;20650;-86
2020/12/06 08:20:55;;;;;;;;;;;;;;;9.06;64.52;97543.05;1750868;80;25138;-86
2020/12/06 08:23:43;;;;;;;;;;;;;;;9.05;64.55;97546.64;1810174;78;22152;-86
2020/12/06 08:26:30;;;;;;;;;;;;;;;9.00;64.57;97544.86;1835479;77;26688;-86
2020/12/06 08:29:20;;;;;;;;;;;;;;;8.88;64.62;97543.20;1732718;81;25340;-86
2020/12/06 08:32:06;;;;;;;;;;;;;;;8.89;64.65;97539.14;1802797;77;20266;-86
2020/12/06 08:34:53;;;;;;;;;;;;;;;8.94;64.70;97542.25;1810080;78;25129;-86
2020/12/06 08:37:41;;;;;;;;;;;;;;;9.05;64.77;97536.20;1812510;78;22134;-86
2020/12/06 08:40:37;;;;;;;;;;;;;;;9.20;64.83;97541.52;1809306;78;26124;-86
2020/12/06 08:43:24;;;;;;;;;;;;;;;9.22;64.88;97531.77;1809692;79;24578;-86
2020/12/06 08:46:11;;;;;;;;;;;;;;;9.28;64.95;97533.90;1779096;80;20262;-86
2020/12/06 08:48:59;;;;;;;;;;;;;;;9.26;65.01;97527.98;1791998;79;25129;-86
2020/12/06 08:51:46;;;;;;;;;;;;;;;9.24;65.03;97527.27;1789641;80;23209;-87
2020/12/06 08:54:33;;;;;;;;;;;;;;;9.23;65.05;97525.60;1784760;78;25976;-86
2020/12/06 08:57:21;;;;;;;;;;;;;;;9.27;65.07;97530.13;1788907;78;23939;-86
2020/12/06 09:00:09;;;;;;;;;;;;;;;9.33;65.10;97534.87;1805017;77;20264;-86
2020/12/06 09:02:55;;;;;;;;;;;;;;;9.40;65.12;97531.63;1763730;78;25184;-86
2020/12/06 09:05:43;;;;;;;;;;;;;;;9.55;65.17;97517.34;1812003;78;22463;-85
2020/12/06 09:08:30;;;;;;;;;;;;;;;9.73;65.20;97518.95;1775578;80;26128;-85
2020/12/06 09:11:17;;;;;;;;;;;;;;;9.84;65.25;97509.77;1777991;78;24767;-86
2020/12/06 09:14:04;;;;;;;;;;;;;;;9.78;65.24;97506.81;1784725;78;20310;-86
2020/12/06 09:16:51;;;;;;;;;;;;;;;9.73;65.26;97499.83;1819832;77;24931;-85
2020/12/06 09:19:37;;;;;;;;;;;;;;;9.75;65.26;97497.46;1836073;77;22153;-85
2020/12/06 09:22:25;;;;;;;;;;;;;;;9.77;65.28;97488.17;1821441;77;26778;-84
2020/12/06 09:25:11;;;;;;;;;;;;;;;9.77;65.28;97483.78;1832425;77;24547;-84
2020/12/06 09:27:58;;;;;;;;;;;;;;;9.92;65.29;97476.02;1839756;77;20354;-84
2020/12/06 09:30:45;;;;;;;;;;;;;;;10.11;65.34;97470.07;1836206;77;25112;-84
2020/12/06 09:36:29;;;;;;;;;;;;;;;10.30;65.34;97468.09;1835356;77;27110;-84
2020/12/06 09:39:17;;;;;;;;;;;;;;;10.34;65.30;97455.94;1838129;77;24594;-85
2020/12/06 09:42:03;;;;;;;;;;;;;;;10.39;65.28;97454.23;1831684;77;20369;-86
2020/12/06 09:44:49;;;;;;;;;;;;;;;10.49;65.28;97453.80;1791622;80;25967;-86
2020/12/06 09:47:37;;;;;;;;;;;;;;;10.58;65.28;97447.80;1764991;79;21560;-87
2020/12/06 09:50:24;;;;;;;;;;;;;;;10.66;65.25;97446.65;1760337;80;26099;-86
2020/12/06 09:53:11;;;;;;;;;;;;;;;10.74;65.26;97448.14;1806338;78;25543;-86
2020/12/06 09:55:57;;;;;;;;;;;;;;;10.82;65.18;97442.23;1758848;79;20279;-85
2020/12/06 09:58:46;;;;;;;;;;;;;;;10.92;65.17;97440.47;1801830;77;25127;-85
2020/12/06 10:01:33;;;;;;;;;;;;;;;11.00;65.13;97439.33;1788432;78;22162;-87
2020/12/06 10:04:22;;;;;;;;;;;;;;;11.10;65.08;97431.02;1796148;79;26181;-86
2020/12/06 10:07:09;;;;;;;;;;;;;;;11.23;65.05;97428.16;1769504;79;24628;-84
2020/12/06 10:09:56;;;;;;;;;;;;;;;11.34;65.02;97425.41;1768186;80;20484;-85
2020/12/06 10:12:43;;;;;;;;;;;;;;;11.37;64.96;97427.74;1715567;81;24841;-85
2020/12/06 10:15:30;;;;;;;;;;;;;;;11.41;64.89;97429.59;1785210;79;22203;-84
2020/12/06 10:18:17;;;;;;;;;;;;;;;11.50;64.79;97426.17;1781624;79;26200;-84
2020/12/06 10:21:05;;;;;;;;;;;;;;;11.59;64.69;97425.34;1777983;79;24029;-84
2020/12/06 10:23:52;;;;;;;;;;;;;;;11.63;64.62;97424.92;1789021;79;20553;-84
2020/12/06 10:26:26;;;;;;;;;;;;;;;11.63;64.54;97431.47;1791939;79;25128;-83
2020/12/06 10:29:12;;;;;;;;;;;;;;;11.63;64.42;97421.47;1769062;80;22092;-84
2020/12/06 10:32:00;;;;;;;;;;;;;;;11.67;64.37;97417.63;1770447;79;25952;-83
2020/12/06 10:34:46;;;;;;;;;;;;;;;11.67;64.30;97420.25;1784905;79;24555;-84
2020/12/06 10:37:32;;;;;;;;;;;;;;;11.66;64.22;97410.25;1776146;79;20334;-83
2020/12/06 10:40:19;;;;;;;;;;;;;;;11.69;64.16;97416.50;1786613;79;25364;-84
2020/12/06 10:43:09;;;;;;;;;;;;;;;11.73;64.12;97419.70;1790072;79;23032;-84
2020/12/06 10:45:56;;;;;;;;;;;;;;;11.78;64.07;97414.89;1759654;78;25873;-84
2020/12/06 10:48:44;;;;;;;;;;;;;;;11.80;63.98;97410.32;1772015;80;24302;-84
2020/12/06 10:54:42;;;;;;;;;;;;;;;11.72;63.84;97415.42;1712746;83;25125;-84
2020/12/06 10:57:30;;;;;;;;;;;;;;;11.84;63.83;97417.44;1707779;83;21334;-84
2020/12/06 11:00:18;;;;;;;;;;;;;;;11.99;63.83;97413.41;1679624;83;25886;-84
2020/12/06 11:03:05;;;;;;;;;;;;;;;12.01;63.81;97414.91;1711044;83;24637;-84
2020/12/06 11:05:57;;;;;;;;;;;;;;;12.08;63.78;97412.08;1699658;83;20619;-84
2020/12/06 11:08:44;;;;;;;;;;;;;;;12.26;63.76;97406.93;1700156;83;26185;-84
2020/12/06 11:11:31;;;;;;;;;;;;;;;12.42;63.73;97408.47;1707611;83;22946;-84
2020/12/06 11:14:18;;;;;;;;;;;;;;;12.54;63.69;97402.07;1691316;83;26432;-84
2020/12/06 11:17:08;;;;;;;;;;;;;;;12.52;63.60;97393.50;1702599;83;24624;-84
2020/12/06 11:19:55;;;;;;;;;;;;;;;12.51;63.52;97397.58;1700604;83;20432;-84
2020/12/06 11:22:42;;;;;;;;;;;;;;;12.52;63.42;97393.50;1680664;84;24998;-84
2020/12/06 11:25:29;;;;;;;;;;;;;;;12.55;63.36;97397.14;1682943;84;22153;-84
2020/12/06 11:28:16;;;;;;;;;;;;;;;12.63;63.27;97402.16;1669384;83;26221;-85
2020/12/06 11:31:04;;;;;;;;;;;;;;;12.73;63.19;97406.39;1701398;83;24563;-84
2020/12/06 11:33:50;;;;;;;;;;;;;;;12.75;63.10;97395.27;1699167;83;20449;-84
2020/12/06 11:36:36;;;;;;;;;;;;;;;12.70;62.97;97391.43;1698012;83;25134;-84
2020/12/06 11:39:23;;;;;;;;;;;;;;;12.67;62.86;97389.91;1688307;83;22384;-84
2020/12/06 11:42:10;;;;;;;;;;;;;;;12.71;62.74;97380.76;1707706;83;26097;-84
2020/12/06 11:44:58;;;;;;;;;;;;;;;12.79;62.69;97372.99;1728469;82;24581;-84
2020/12/06 11:47:45;;;;;;;;;;;;;;;12.73;62.59;97367.50;1726569;82;20509;-84
2020/12/06 11:50:32;;;;;;;;;;;;;;;12.69;62.45;97364.34;1710686;82;24808;-84
2020/12/06 11:53:19;;;;;;;;;;;;;;;12.74;62.38;97362.59;1722375;82;22232;-83
2020/12/06 11:56:06;;;;;;;;;;;;;;;12.78;62.30;97363.94;1695094;82;26193;-83
2020/12/06 11:58:52;;;;;;;;;;;;;;;12.89;62.24;97367.68;1760548;81;24542;-84
2020/12/06 12:01:39;;;;;;;;;;;;;;;12.99;62.20;97370.58;1740258;81;20589;-84
2020/12/06 12:04:26;;;;;;;;;;;;;;;13.05;62.14;97371.79;1740884;81;25082;-83
2020/12/06 12:07:12;;;;;;;;;;;;;;;13.10;62.05;97368.72;1741613;80;22455;-84
2020/12/06 12:09:59;;;;;;;;;;;;;;;13.18;61.99;97367.05;1739529;81;26106;-84
2020/12/06 12:12:47;;;;;;;;;;;;;;;13.27;61.94;97365.31;1727491;82;24446;-84
2020/12/06 12:15:35;;;;;;;;;;;;;;;13.32;61.86;97360.42;1736333;81;20270;-84
2020/12/06 12:18:21;;;;;;;;;;;;;;;13.33;61.75;97358.97;1732721;81;25127;-84
2020/12/06 12:21:08;;;;;;;;;;;;;;;13.29;61.63;97362.88;1722047;82;22220;-84
2020/12/06 12:23:54;;;;;;;;;;;;;;;13.08;61.53;97367.58;1735810;82;26272;-84
2020/12/06 12:26:42;;;;;;;;;;;;;;;12.98;61.42;97355.80;1737870;81;24595;-83
2020/12/06 12:29:33;;;;;;;;;;;;;;;12.98;61.33;97359.73;1735536;81;20397;-84
2020/12/06 12:32:20;;;;;;;;;;;;;;;12.89;61.24;97351.44;1703676;82;25372;-84
2020/12/06 12:35:07;;;;;;;;;;;;;;;12.93;61.15;97348.84;1733760;81;22111;-84
2020/12/06 12:37:55;;;;;;;;;;;;;;;12.85;61.06;97356.66;1740319;82;26122;-84
2020/12/06 12:40:42;;;;;;;;;;;;;;;12.84;61.01;97348.44;1737759;82;24605;-84
2020/12/06 12:43:30;;;;;;;;;;;;;;;12.75;60.88;97360.31;1727205;82;20390;-84
2020/12/06 12:46:16;;;;;;;;;;;;;;;12.64;60.72;97355.26;1735015;82;25040;-84
2020/12/06 12:49:02;;;;;;;;;;;;;;;12.58;60.62;97357.98;1726415;82;22190;-84
2020/12/06 12:51:53;;;;;;;;;;;;;;;12.59;60.53;97367.52;1733966;82;26312;-84
2020/12/06 12:54:29;;;;;;;;;;;;;;;12.61;60.48;97356.84;1733311;81;24693;-84
2020/12/06 12:57:16;;;;;;;;;;;;;;;12.56;60.45;97346.79;1723489;81;20375;-84
2020/12/06 13:00:03;;;;;;;;;;;;;;;12.54;60.37;97342.20;1727503;82;25238;-83
2020/12/06 13:02:44;;;;;;;;;;;;;;;12.59;60.33;97338.64;1730539;82;23227;-84
2020/12/06 13:05:31;;;;;;;;;;;;;;;12.65;60.32;97343.80;1727660;82;26126;-84
2020/12/06 13:08:17;;;;;;;;;;;;;;;12.60;60.26;97333.70;1720154;82;24761;-84
2020/12/06 13:11:08;;;;;;;;;;;;;;;12.49;60.19;97333.94;1725869;82;20269;-84
2020/12/06 13:13:59;;;;;;;;;;;;;;;12.35;60.11;97330.46;1732400;82;25215;-83
2020/12/06 13:16:47;;;;;;;;;;;;;;;12.28;60.05;97330.20;1723127;82;22119;-83
2020/12/06 13:19:34;;;;;;;;;;;;;;;12.17;59.96;97327.77;1679848;84;26477;-83
2020/12/06 13:22:22;;;;;;;;;;;;;;;12.12;59.89;97330.83;1729966;82;24689;-84
2020/12/06 13:25:08;;;;;;;;;;;;;;;12.05;59.87;97335.49;1702011;83;20338;-83
2020/12/06 13:27:42;;;;;;;;;;;;;;;12.01;59.83;97331.00;1721596;82;25079;-83
2020/12/06 13:30:30;;;;;;;;;;;;;;;12.01;59.80;97338.86;1707667;82;22141;-84
2020/12/06 13:33:16;;;;;;;;;;;;;;;12.02;59.77;97342.31;1728658;82;26091;-84
2020/12/06 13:36:02;;;;;;;;;;;;;;;12.01;59.72;97341.48;1724622;82;24820;-85
2020/12/06 13:38:49;;;;;;;;;;;;;;;11.98;59.65;97330.47;1730745;82;20236;-84
2020/12/06 13:41:23;;;;;;;;;;;;;;;11.94;59.57;97336.97;1723060;82;24355;-84
2020/12/06 13:46:55;;;;;;;;;;;;;;;11.92;59.34;97331.86;1727709;82;26182;-84
2020/12/06 13:49:43;;;;;;;;;;;;;;;11.90;59.23;97332.48;1726802;82;24715;-84
2020/12/06 13:52:30;;;;;;;;;;;;;;;11.86;59.14;97335.05;1727867;82;20275;-84
2020/12/06 13:55:16;;;;;;;;;;;;;;;11.84;59.03;97328.31;1717914;82;24969;-84
2020/12/06 13:58:09;;;;;;;;;;;;;;;11.84;58.91;97330.94;1731660;82;22154;-84
2020/12/06 14:00:55;;;;;;;;;;;;;;;11.84;58.82;97321.25;1737472;81;26134;-84
2020/12/06 14:03:46;;;;;;;;;;;;;;;11.82;58.74;97315.34;1720046;82;24347;-85
2020/12/06 14:06:33;;;;;;;;;;;;;;;11.77;58.63;97318.87;1728980;82;20603;-84
2020/12/06 14:09:23;;;;;;;;;;;;;;;11.76;58.59;97318.52;1696655;82;25096;-84
2020/12/06 14:12:10;;;;;;;;;;;;;;;11.74;58.46;97317.83;1730976;82;22439;-84
2020/12/06 14:14:57;;;;;;;;;;;;;;;11.71;58.38;97322.02;1730188;82;26951;-84
2020/12/06 14:20:37;;;;;;;;;;;;;;;11.69;58.25;97317.39;1725707;82;20333;-84
2020/12/06 14:23:24;;;;;;;;;;;;;;;11.64;58.20;97312.58;1731040;82;25175;-84
2020/12/06 14:26:10;;;;;;;;;;;;;;;11.60;58.16;97306.45;1726774;82;22208;-85
2020/12/06 14:28:57;;;;;;;;;;;;;;;11.57;58.10;97317.20;1704456;82;25689;-84
2020/12/06 14:31:44;;;;;;;;;;;;;;;11.53;58.05;97310.59;1734107;82;24728;-84
2020/12/06 14:34:31;;;;;;;;;;;;;;;11.49;58.01;97313.16;1734669;82;20554;-84
2020/12/06 14:37:19;;;;;;;;;;;;;;;11.47;57.94;97315.09;1736538;82;25193;-84
2020/12/06 14:40:05;;;;;;;;;;;;;;;11.47;57.88;97322.47;1728048;82;22352;-84
2020/12/06 14:42:51;;;;;;;;;;;;;;;11.50;57.86;97312.20;1723601;82;27148;-85